Time;durP1;ratioP1;P1;durP2;ratioP2;P2;SDS_P1;SDS_P2;PMS_P1;PMS_P2;Temp;Humidity;BMP_temperature;BMP_pressure;BME280_temperature;BME280_humidity;BME280_pressure;Samples;Min_cycle;Max_cycle;Signal;HPM_P1;HPM_P2
2021/06/10 00:02:22;;;;;;;7.60;6.40;;;12.30;99.90;;;;;;5076929;28;20172;-67
2021/06/10 00:04:48;;;;;;;9.90;8.17;;;12.30;99.90;;;;;;5076767;28;20631;-67
2021/06/10 00:07:15;;;;;;;15.90;9.37;;;12.30;99.90;;;;;;5076455;28;20423;-67
2021/06/10 00:09:41;;;;;;;9.35;8.27;;;12.30;99.90;;;;;;5076427;28;20269;-67
2021/06/10 00:12:07;;;;;;;10.73;8.87;;;12.30;99.90;;;;;;5076662;28;20257;-67
2021/06/10 00:14:33;;;;;;;8.18;7.15;;;12.40;99.90;;;;;;5076436;28;20454;-67
2021/06/10 00:16:59;;;;;;;9.50;8.37;;;12.40;99.90;;;;;;5076226;28;20659;-67
2021/06/10 00:19:24;;;;;;;7.67;6.97;;;12.40;99.90;;;;;;5076608;28;20432;-67
2021/06/10 00:21:50;;;;;;;9.37;8.47;;;12.40;99.90;;;;;;5076275;28;20198;-67
2021/06/10 00:24:16;;;;;;;8.67;7.77;;;12.30;99.90;;;;;;5076524;28;20165;-67
2021/06/10 00:26:41;;;;;;;10.70;7.20;;;12.30;99.90;;;;;;5076028;28;20162;-67
2021/06/10 00:29:07;;;;;;;10.33;7.73;;;12.30;99.90;;;;;;5076235;28;20639;-67
2021/06/10 00:31:34;;;;;;;8.47;7.17;;;12.20;99.90;;;;;;5076564;28;20166;-67
2021/06/10 00:34:00;;;;;;;8.00;7.18;;;12.20;99.90;;;;;;5076246;28;20447;-67
2021/06/10 00:36:26;;;;;;;6.47;5.88;;;12.10;99.90;;;;;;5075921;28;20193;-67
2021/06/10 00:38:52;;;;;;;10.30;9.27;;;12.10;99.90;;;;;;5075964;28;20215;-67
2021/06/10 00:41:19;;;;;;;9.90;6.77;;;12.10;99.90;;;;;;5075886;28;20206;-67
2021/06/10 00:43:44;;;;;;;11.23;8.35;;;12.10;99.90;;;;;;5075982;28;20158;-67
2021/06/10 00:46:10;;;;;;;7.87;7.17;;;12.10;99.90;;;;;;5075824;28;20180;-67
2021/06/10 00:48:36;;;;;;;8.80;7.30;;;12.10;99.90;;;;;;5075847;28;20186;-67
2021/06/10 00:51:02;;;;;;;8.47;7.10;;;12.10;99.90;;;;;;5075932;28;20403;-67
2021/06/10 00:53:27;;;;;;;8.63;7.70;;;12.00;99.90;;;;;;5075964;28;20542;-67
2021/06/10 00:55:56;;;;;;;9.37;8.27;;;12.00;99.90;;;;;;5075852;28;20407;-67
2021/06/10 00:58:22;;;;;;;10.52;8.80;;;12.10;99.90;;;;;;5075615;28;20281;-67
2021/06/10 01:00:49;;;;;;;9.27;7.07;;;12.10;99.90;;;;;;5075623;28;20205;-67
2021/06/10 01:03:15;;;;;;;8.80;7.57;;;12.10;99.90;;;;;;5075373;28;20165;-67
2021/06/10 01:05:42;;;;;;;9.37;8.40;;;12.10;99.90;;;;;;5075498;28;20235;-67
2021/06/10 01:08:21;;;;;;;9.07;7.55;;;12.20;99.90;;;;;;5075623;28;20182;-67
2021/06/10 01:11:08;;;;;;;8.27;7.43;;;12.20;99.90;;;;;;5075505;28;20181;-67
2021/06/10 01:13:54;;;;;;;7.00;6.30;;;12.20;99.90;;;;;;5075559;28;20173;-67
2021/06/10 01:16:23;;;;;;;7.55;6.80;;;12.10;99.90;;;;;;5075337;28;20169;-67
2021/06/10 01:18:51;;;;;;;7.97;6.97;;;12.10;99.90;;;;;;5076270;28;20204;-67
2021/06/10 01:21:19;;;;;;;9.15;7.55;;;12.10;99.90;;;;;;5075187;28;20193;-67
2021/06/10 01:24:29;;;;;;;10.15;7.40;;;12.00;99.90;;;;;;5075311;28;20173;-67
2021/06/10 01:27:31;;;;;;;7.47;6.65;;;11.90;99.90;;;;;;5074953;28;20180;-67
2021/06/10 01:30:04;;;;;;;11.55;6.82;;;11.80;99.90;;;;;;5075201;28;20180;-67
2021/06/10 01:32:32;;;;;;;8.02;6.88;;;11.80;99.90;;;;;;5075143;28;20631;-67
2021/06/10 01:34:59;;;;;;;7.05;6.40;;;11.80;99.90;;;;;;5075167;28;20189;-67
2021/06/10 01:37:26;;;;;;;9.63;8.48;;;11.80;99.90;;;;;;5074835;28;20543;-67
2021/06/10 01:39:53;;;;;;;13.07;8.85;;;11.80;99.90;;;;;;5075030;28;20174;-67
2021/06/10 01:42:19;;;;;;;8.68;7.75;;;11.80;99.90;;;;;;5074873;28;20166;-67
2021/06/10 01:44:47;;;;;;;8.57;7.67;;;11.90;99.90;;;;;;5073583;28;20719;-67
2021/06/10 01:47:16;;;;;;;7.10;6.22;;;11.90;99.90;;;;;;5074587;28;20423;-66
2021/06/10 01:49:42;;;;;;;8.68;7.80;;;11.90;99.90;;;;;;5074696;28;20169;-67
2021/06/10 01:52:09;;;;;;;10.20;8.13;;;11.90;99.90;;;;;;5075295;28;20173;-67
2021/06/10 01:54:35;;;;;;;7.95;7.20;;;11.90;99.90;;;;;;5074806;28;20166;-67
2021/06/10 01:57:03;;;;;;;9.20;8.20;;;11.90;99.90;;;;;;5074362;28;20221;-67
2021/06/10 01:59:31;;;;;;;9.35;8.27;;;11.90;99.90;;;;;;5074471;28;20185;-67
2021/06/10 02:02:00;;;;;;;9.52;8.18;;;11.80;99.90;;;;;;5073254;28;20235;-67
2021/06/10 02:04:27;;;;;;;11.18;8.38;;;11.80;99.90;;;;;;5075060;28;20172;-66
2021/06/10 02:06:54;;;;;;;9.60;8.38;;;11.70;99.90;;;;;;5074130;28;20176;-67
2021/06/10 02:09:21;;;;;;;10.95;8.77;;;11.70;99.90;;;;;;5074181;28;20692;-67
2021/06/10 02:11:48;;;;;;;10.63;9.32;;;11.70;99.90;;;;;;5074377;28;20200;-67
2021/06/10 02:14:18;;;;;;;10.80;8.75;;;11.80;99.90;;;;;;5074273;28;20185;-67
2021/06/10 02:16:44;;;;;;;11.63;8.80;;;11.80;99.90;;;;;;5073380;28;20174;-67
2021/06/10 02:19:10;;;;;;;13.43;10.35;;;11.80;99.90;;;;;;5072764;28;20643;-67
2021/06/10 02:21:37;;;;;;;12.00;9.30;;;11.90;99.90;;;;;;5074031;28;20214;-67
2021/06/10 02:24:02;;;;;;;10.23;9.18;;;11.90;99.90;;;;;;5074081;28;20184;-67
2021/06/10 02:26:28;;;;;;;16.87;10.53;;;11.90;99.90;;;;;;5073958;28;20248;-67
2021/06/10 02:28:54;;;;;;;17.17;12.30;;;11.90;99.90;;;;;;5073839;28;20424;-67
2021/06/10 02:31:20;;;;;;;11.83;10.23;;;11.90;99.90;;;;;;5073846;28;20180;-67
2021/06/10 02:33:46;;;;;;;13.57;10.60;;;12.00;99.90;;;;;;5074027;28;20166;-67
2021/06/10 02:36:16;;;;;;;17.27;12.33;;;12.00;99.90;;;;;;5073697;28;20396;-67
2021/06/10 02:39:04;;;;;;;12.95;10.95;;;12.00;99.90;;;;;;5074027;28;20185;-67
2021/06/10 02:41:32;;;;;;;20.10;12.35;;;12.10;99.90;;;;;;5073949;28;20201;-67
2021/06/10 02:43:59;;;;;;;17.15;11.32;;;12.10;99.90;;;;;;5073853;28;20169;-67
2021/06/10 02:46:27;;;;;;;14.48;11.90;;;12.10;99.90;;;;;;5073468;28;20750;-67
2021/06/10 02:48:55;;;;;;;16.52;11.57;;;12.10;99.90;;;;;;5073582;28;20186;-67
2021/06/10 02:51:22;;;;;;;10.90;9.70;;;12.00;99.90;;;;;;5073999;28;20494;-66
2021/06/10 02:53:49;;;;;;;14.35;11.57;;;12.00;99.90;;;;;;5073754;28;20541;-67
2021/06/10 02:56:16;;;;;;;17.35;11.98;;;12.00;99.90;;;;;;5073438;28;20318;-66
2021/06/10 02:58:44;;;;;;;13.32;11.93;;;12.00;99.90;;;;;;5073425;28;20566;-67
2021/06/10 03:01:10;;;;;;;14.38;11.95;;;12.00;99.90;;;;;;5073442;28;20197;-66
2021/06/10 03:03:36;;;;;;;17.00;12.10;;;12.00;99.90;;;;;;5073768;28;20172;-67
2021/06/10 03:06:03;;;;;;;13.07;11.15;;;12.00;99.90;;;;;;5073322;28;20173;-67
2021/06/10 03:08:30;;;;;;;16.58;12.63;;;12.00;99.90;;;;;;5073331;28;20189;-67
2021/06/10 03:11:01;;;;;;;15.20;12.30;;;12.00;99.90;;;;;;5073320;28;20579;-66
2021/06/10 03:13:30;;;;;;;14.35;11.68;;;12.10;99.90;;;;;;5073398;28;20173;-67
2021/06/10 03:15:56;;;;;;;16.95;12.18;;;12.10;99.90;;;;;;5073419;28;20184;-66
2021/06/10 03:18:23;;;;;;;15.63;12.30;;;12.10;99.90;;;;;;5073190;28;20663;-67
2021/06/10 03:20:49;;;;;;;18.83;14.32;;;12.10;99.90;;;;;;5073333;28;20197;-67
2021/06/10 03:23:15;;;;;;;15.20;11.15;;;12.10;99.90;;;;;;5073482;28;20186;-67
2021/06/10 03:25:42;;;;;;;16.20;12.20;;;12.20;99.90;;;;;;5071925;28;20197;-67
2021/06/10 03:28:08;;;;;;;15.00;12.27;;;12.20;99.90;;;;;;5077062;28;20193;-67
2021/06/10 03:30:35;;;;;;;17.17;12.50;;;12.20;99.90;;;;;;5077441;28;20185;-66
2021/06/10 03:33:04;;;;;;;19.00;14.60;;;12.20;99.90;;;;;;5077529;28;20404;-67
2021/06/10 03:35:34;;;;;;;14.63;12.75;;;12.20;99.90;;;;;;5077211;28;20905;-66
2021/06/10 03:38:01;;;;;;;16.20;12.80;;;12.20;99.90;;;;;;5077201;28;20604;-67
2021/06/10 03:40:27;;;;;;;14.65;11.60;;;12.30;99.90;;;;;;5077050;28;20196;-67
2021/06/10 03:42:54;;;;;;;14.45;12.00;;;12.30;99.90;;;;;;5077295;28;20631;-66
2021/06/10 03:45:20;;;;;;;13.43;11.20;;;12.30;99.90;;;;;;5076937;28;20162;-67
2021/06/10 03:47:46;;;;;;;14.60;11.50;;;12.30;99.90;;;;;;5076909;28;20941;-67
2021/06/10 03:50:12;;;;;;;14.43;10.77;;;12.30;99.90;;;;;;5077046;28;20211;-67
2021/06/10 03:52:39;;;;;;;16.88;12.15;;;12.30;99.90;;;;;;5077084;28;20901;-67
2021/06/10 03:55:07;;;;;;;14.73;12.25;;;12.40;99.90;;;;;;5076670;28;20253;-67
2021/06/10 03:57:34;;;;;;;16.83;11.48;;;12.40;99.90;;;;;;5076947;28;20188;-67
2021/06/10 04:00:00;;;;;;;14.90;12.15;;;12.50;99.90;;;;;;5076912;28;20173;-67
2021/06/10 04:02:26;;;;;;;13.73;11.57;;;12.60;99.90;;;;;;5076873;28;20166;-67
2021/06/10 04:04:54;;;;;;;14.83;11.97;;;12.60;99.90;;;;;;5076815;28;20461;-67
2021/06/10 04:07:20;;;;;;;10.20;9.20;;;12.60;99.90;;;;;;5076519;28;20204;-66
2021/06/10 04:09:46;;;;;;;14.15;12.43;;;12.60;99.90;;;;;;5076879;28;20914;-67
2021/06/10 04:12:12;;;;;;;16.60;10.40;;;12.60;99.90;;;;;;5076871;28;20264;-67
2021/06/10 04:14:37;;;;;;;14.13;9.63;;;12.60;99.90;;;;;;5076433;28;20185;-67
2021/06/10 04:17:03;;;;;;;12.57;10.73;;;12.70;99.90;;;;;;5076337;28;20189;-67
2021/06/10 04:19:29;;;;;;;11.00;9.88;;;12.70;99.90;;;;;;5076362;28;20178;-67
2021/06/10 04:21:55;;;;;;;12.30;9.50;;;12.80;99.90;;;;;;5076492;28;20205;-66
2021/06/10 04:24:21;;;;;;;11.10;9.60;;;12.80;99.90;;;;;;5076999;28;20518;-67
2021/06/10 04:26:48;;;;;;;9.90;8.27;;;13.00;99.90;;;;;;5076107;28;20182;-67
2021/06/10 04:29:13;;;;;;;8.60;7.50;;;13.40;99.90;;;;;;5076212;28;20430;-67
2021/06/10 04:31:39;;;;;;;8.90;8.00;;;13.70;99.90;;;;;;5076358;28;20409;-67
2021/06/10 04:34:05;;;;;;;11.47;9.70;;;14.00;99.90;;;;;;5076350;28;20418;-67
2021/06/10 04:36:30;;;;;;;9.33;8.43;;;14.20;99.90;;;;;;5075900;28;20172;-67
2021/06/10 04:38:56;;;;;;;9.03;8.13;;;14.30;99.90;;;;;;5075252;28;20191;-67
2021/06/10 04:41:22;;;;;;;6.73;6.13;;;14.50;99.90;;;;;;5076286;28;20201;-67
2021/06/10 04:43:47;;;;;;;8.87;7.03;;;14.60;99.90;;;;;;5076350;28;20244;-67
2021/06/10 04:46:13;;;;;;;7.33;6.60;;;14.70;99.90;;;;;;5075847;28;20639;-67
2021/06/10 04:48:39;;;;;;;6.37;5.73;;;14.70;99.90;;;;;;5076088;28;20549;-67
2021/06/10 04:51:05;;;;;;;6.73;6.13;;;14.70;99.90;;;;;;5076029;28;20446;-67
2021/06/10 04:53:31;;;;;;;5.97;5.37;;;14.80;99.90;;;;;;5076046;28;20239;-67
2021/06/10 04:55:57;;;;;;;8.17;7.00;;;14.90;99.90;;;;;;5075669;28;20759;-67
2021/06/10 04:58:23;;;;;;;6.90;6.03;;;15.00;99.90;;;;;;5075674;28;20506;-67
2021/06/10 05:00:49;;;;;;;7.37;6.57;;;15.20;99.90;;;;;;5075751;28;20538;-67
2021/06/10 05:03:20;;;;;;;5.80;5.37;;;15.30;99.90;;;;;;5075827;28;20172;-67
2021/06/10 05:05:46;;;;;;;6.83;6.13;;;15.50;99.90;;;;;;5075566;28;20162;-67
2021/06/10 05:08:12;;;;;;;5.93;5.43;;;15.80;99.90;;;;;;5075869;28;20428;-67
2021/06/10 05:10:37;;;;;;;6.80;6.17;;;16.20;99.90;;;;;;5075424;28;20230;-67
2021/06/10 05:13:03;;;;;;;6.83;6.30;;;16.60;99.90;;;;;;5075536;28;20181;-67
2021/06/10 05:15:29;;;;;;;5.20;4.70;;;17.00;99.90;;;;;;5075377;28;20172;-67
2021/06/10 05:17:55;;;;;;;5.17;4.70;;;17.30;99.90;;;;;;5075271;28;20191;-67
2021/06/10 05:20:20;;;;;;;5.10;4.60;;;17.40;99.90;;;;;;5075180;28;20202;-67
2021/06/10 05:22:46;;;;;;;5.73;5.23;;;17.40;99.90;;;;;;5075265;28;20407;-67
2021/06/10 05:25:12;;;;;;;5.70;5.30;;;17.40;99.90;;;;;;5075068;28;20187;-67
2021/06/10 05:27:38;;;;;;;7.00;5.23;;;17.50;99.90;;;;;;5075143;28;20193;-67
2021/06/10 05:30:05;;;;;;;5.73;5.23;;;17.50;99.90;;;;;;5075231;28;20453;-67
2021/06/10 05:32:30;;;;;;;6.17;5.60;;;17.50;99.90;;;;;;5075268;28;20197;-67
2021/06/10 05:34:56;;;;;;;5.33;4.93;;;17.60;99.90;;;;;;5075149;28;20455;-67
2021/06/10 05:37:22;;;;;;;5.17;4.67;;;17.80;99.90;;;;;;5074669;28;20185;-67
2021/06/10 05:39:47;;;;;;;8.90;4.67;;;18.40;99.90;;;;;;5074891;28;20170;-67
2021/06/10 05:42:14;;;;;;;4.33;3.93;;;19.20;99.90;;;;;;5074957;28;20167;-67
2021/06/10 05:44:40;;;;;;;3.70;2.90;;;19.70;99.00;;;;;;5074975;28;20165;-67
2021/06/10 05:47:05;;;;;;;2.63;2.43;;;20.40;98.20;;;;;;5074679;28;20543;-67
2021/06/10 05:49:31;;;;;;;3.30;3.00;;;21.20;96.70;;;;;;5074038;28;20396;-67
2021/06/10 05:51:57;;;;;;;3.87;3.40;;;22.10;94.30;;;;;;5074475;28;20173;-67
2021/06/10 05:54:22;;;;;;;3.57;3.27;;;22.70;93.10;;;;;;5074542;28;20177;-67
2021/06/10 05:56:50;;;;;;;2.97;2.77;;;23.10;93.20;;;;;;5074763;28;20208;-67
2021/06/10 05:59:16;;;;;;;3.30;3.10;;;23.30;93.40;;;;;;5073246;28;20168;-67
2021/06/10 06:01:42;;;;;;;6.80;4.33;;;23.90;92.10;;;;;;5074524;28;20936;-68
2021/06/10 06:04:07;;;;;;;3.87;3.27;;;24.40;90.80;;;;;;5074565;28;20166;-67
2021/06/10 06:06:33;;;;;;;2.97;2.77;;;24.90;87.70;;;;;;5074167;28;20201;-68
2021/06/10 06:08:59;;;;;;;5.40;3.40;;;25.10;87.70;;;;;;5074365;28;20280;-69
2021/06/10 06:11:24;;;;;;;4.10;3.80;;;25.70;86.20;;;;;;5074350;28;20237;-68
2021/06/10 06:14:05;;;;;;;4.20;3.43;;;26.70;81.40;;;;;;5074389;28;20169;-68
2021/06/10 06:16:31;;;;;;;3.30;3.00;;;27.90;76.60;;;;;;5074066;28;20652;-68
2021/06/10 06:18:58;;;;;;;3.57;3.27;;;29.00;73.10;;;;;;5074298;28;20511;-68
2021/06/10 06:21:24;;;;;;;3.40;3.10;;;30.10;69.10;;;;;;5074087;28;20671;-68
2021/06/10 06:23:49;;;;;;;4.37;3.20;;;31.20;61.60;;;;;;5074123;28;20425;-69
2021/06/10 06:26:15;;;;;;;3.10;2.80;;;32.20;57.60;;;;;;5073812;28;20162;-68
2021/06/10 06:28:42;;;;;;;2.93;2.73;;;32.70;55.30;;;;;;5073942;28;20193;-68
2021/06/10 06:31:09;;;;;;;3.80;3.50;;;32.80;53.00;;;;;;5074085;28;20411;-68
2021/06/10 06:33:35;;;;;;;6.83;3.60;;;32.90;51.50;;;;;;5072539;28;20921;-68
2021/06/10 06:36:00;;;;;;;3.20;3.00;;;32.80;51.50;;;;;;5073910;28;20403;-68
2021/06/10 06:38:27;;;;;;;2.93;2.63;;;33.20;52.80;;;;;;5073756;28;20264;-68
2021/06/10 06:40:52;;;;;;;4.13;3.73;;;33.50;50.90;;;;;;5073850;28;20241;-68
2021/06/10 06:43:19;;;;;;;3.13;2.93;;;34.00;50.70;;;;;;5073941;28;20424;-68
2021/06/10 06:45:45;;;;;;;3.30;3.07;;;34.30;50.40;;;;;;5073745;28;20165;-68
2021/06/10 06:48:13;;;;;;;4.17;3.77;;;34.30;48.30;;;;;;5073644;28;20778;-68
2021/06/10 06:50:39;;;;;;;5.40;3.20;;;34.50;48.30;;;;;;5073927;28;20193;-68
2021/06/10 06:53:05;;;;;;;3.60;3.30;;;34.90;50.00;;;;;;5073671;28;20402;-68
2021/06/10 06:55:31;;;;;;;3.60;3.37;;;35.20;47.50;;;;;;5072218;28;20412;-68
2021/06/10 06:57:57;;;;;;;3.23;3.03;;;35.60;47.60;;;;;;5072215;28;20189;-68
2021/06/10 07:00:23;;;;;;;3.30;3.00;;;35.50;46.40;;;;;;5073469;28;20186;-68
2021/06/10 07:02:49;;;;;;;3.07;2.80;;;35.40;45.20;;;;;;5073232;28;20867;-68
2021/06/10 07:05:15;;;;;;;3.30;3.00;;;35.30;46.70;;;;;;5073362;28;20873;-68
2021/06/10 07:07:41;;;;;;;3.70;2.43;;;35.60;46.00;;;;;;5073476;28;20434;-68
2021/06/10 07:10:07;;;;;;;5.80;3.07;;;35.80;47.10;;;;;;5073340;28;20181;-68
2021/06/10 07:12:33;;;;;;;4.13;3.27;;;35.80;48.40;;;;;;5072613;28;20798;-68
2021/06/10 07:14:59;;;;;;;3.90;2.90;;;35.70;45.80;;;;;;5073514;28;20411;-68
2021/06/10 07:17:25;;;;;;;3.50;3.20;;;35.60;46.70;;;;;;5073455;28;20193;-68
2021/06/10 07:19:55;;;;;;;3.40;3.10;;;35.50;45.00;;;;;;5073275;28;20427;-68
2021/06/10 07:22:21;;;;;;;3.17;2.97;;;35.30;46.40;;;;;;5073662;28;20170;-68
2021/06/10 07:24:47;;;;;;;3.33;3.03;;;35.00;46.30;;;;;;5073471;28;20570;-68
2021/06/10 07:27:17;;;;;;;3.10;2.90;;;34.90;46.90;;;;;;5073214;28;20921;-68
2021/06/10 07:29:44;;;;;;;3.73;3.40;;;34.80;47.00;;;;;;5073460;28;20819;-68
2021/06/10 07:32:09;;;;;;;3.90;3.60;;;34.90;49.00;;;;;;5073449;28;20415;-68
2021/06/10 07:34:37;;;;;;;3.50;3.30;;;35.20;47.30;;;;;;5073272;28;20770;-68
2021/06/10 07:37:06;;;;;;;3.40;3.17;;;35.40;47.80;;;;;;5073083;28;20219;-68
2021/06/10 07:39:31;;;;;;;3.27;2.97;;;35.50;45.50;;;;;;5073193;28;20433;-68
2021/06/10 07:41:58;;;;;;;3.20;3.00;;;35.90;45.60;;;;;;5073245;28;20476;-68
2021/06/10 07:44:24;;;;;;;3.70;3.40;;;36.10;45.70;;;;;;5073605;28;20178;-68
2021/06/10 07:46:50;;;;;;;8.10;3.77;;;36.30;44.60;;;;;;5072962;28;20949;-68
2021/06/10 07:49:16;;;;;;;3.23;3.03;;;36.50;46.10;;;;;;5073064;28;20524;-68
2021/06/10 07:51:41;;;;;;;10.27;3.60;;;36.70;44.40;;;;;;5073333;28;20623;-68
2021/06/10 07:54:07;;;;;;;2.90;2.70;;;36.80;43.10;;;;;;5073156;28;20181;-68
2021/06/10 07:56:33;;;;;;;4.10;3.70;;;36.70;42.40;;;;;;5072769;28;20676;-68
2021/06/10 07:58:58;;;;;;;6.17;3.90;;;36.60;42.70;;;;;;5072948;28;20266;-68
2021/06/10 08:01:24;;;;;;;5.77;3.47;;;36.60;43.30;;;;;;5072879;28;20205;-68
2021/06/10 08:03:49;;;;;;;4.37;3.73;;;37.30;42.70;;;;;;5072979;28;20166;-68
2021/06/10 08:06:15;;;;;;;3.57;3.27;;;37.90;38.50;;;;;;5072786;28;20176;-68
2021/06/10 08:08:41;;;;;;;4.47;4.07;;;37.40;37.70;;;;;;5072813;28;20197;-68
2021/06/10 08:11:09;;;;;;;3.33;3.13;;;36.30;40.20;;;;;;5072843;28;20185;-68
2021/06/10 08:13:35;;;;;;;3.20;3.00;;;35.40;39.70;;;;;;5073932;28;20585;-68
2021/06/10 08:16:00;;;;;;;7.53;3.50;;;35.10;44.20;;;;;;5076352;28;20407;-68
2021/06/10 08:18:28;;;;;;;3.83;3.53;;;34.60;44.70;;;;;;5076370;28;20666;-68
2021/06/10 08:20:57;;;;;;;4.00;3.70;;;34.80;40.60;;;;;;5076514;28;20193;-68
2021/06/10 08:23:25;;;;;;;3.43;3.23;;;35.10;40.40;;;;;;5076626;28;20885;-68
2021/06/10 08:25:53;;;;;;;4.13;3.73;;;35.50;40.50;;;;;;5076258;28;20447;-68
2021/06/10 08:28:19;;;;;;;4.00;3.37;;;36.10;38.50;;;;;;5076302;28;20921;-68
2021/06/10 08:30:45;;;;;;;3.60;3.30;;;37.40;38.90;;;;;;5076329;28;20403;-69
2021/06/10 08:33:11;;;;;;;3.20;3.00;;;38.30;39.60;;;;;;5076524;28;20173;-69
2021/06/10 08:35:36;;;;;;;5.93;3.73;;;38.20;34.20;;;;;;5076123;28;20400;-68
2021/06/10 08:38:06;;;;;;;3.70;3.40;;;37.30;36.80;;;;;;5076240;28;20200;-69
2021/06/10 08:40:33;;;;;;;4.87;4.47;;;37.30;38.60;;;;;;5076034;28;20247;-69
2021/06/10 08:42:58;;;;;;;6.37;3.50;;;37.90;35.10;;;;;;5076085;28;20404;-69
2021/06/10 08:45:30;;;;;;;5.10;3.67;;;38.40;38.30;;;;;;5075845;28;20415;-69
2021/06/10 08:47:58;;;;;;;3.30;3.10;;;38.90;34.90;;;;;;5076008;28;20190;-69
2021/06/10 08:50:26;;;;;;;3.63;3.43;;;38.40;36.60;;;;;;5074791;28;20807;-69
2021/06/10 08:52:56;;;;;;;3.60;3.30;;;37.50;39.80;;;;;;5076060;28;20805;-69
2021/06/10 08:55:23;;;;;;;5.43;3.67;;;37.60;39.80;;;;;;5075615;28;20415;-69
2021/06/10 08:57:49;;;;;;;3.50;3.20;;;37.50;37.90;;;;;;5075705;28;20504;-68
2021/06/10 09:00:15;;;;;;;3.50;3.20;;;37.80;40.20;;;;;;5075736;28;20486;-68
2021/06/10 09:02:50;;;;;;;3.60;3.30;;;37.90;33.60;;;;;;5076006;28;20400;-68
2021/06/10 09:05:18;;;;;;;3.50;3.20;;;38.10;33.90;;;;;;5075630;28;20761;-68
2021/06/10 09:07:54;;;;;;;3.43;3.00;;;37.10;35.50;;;;;;5075530;28;20434;-68
2021/06/10 09:10:22;;;;;;;3.60;3.30;;;35.90;38.10;;;;;;5075523;28;20427;-68
2021/06/10 09:12:51;;;;;;;3.20;3.00;;;35.20;38.10;;;;;;5075550;28;20947;-68
2021/06/10 09:15:18;;;;;;;3.63;3.37;;;35.40;38.80;;;;;;5075395;28;20408;-68
2021/06/10 09:17:44;;;;;;;3.17;2.97;;;36.00;39.00;;;;;;5075469;28;20431;-68
2021/06/10 09:20:19;;;;;;;4.00;3.70;;;36.70;37.90;;;;;;5075317;28;20412;-69
2021/06/10 09:22:46;;;;;;;4.60;4.20;;;37.10;38.70;;;;;;5075329;28;20403;-68
2021/06/10 09:25:17;;;;;;;3.57;3.27;;;36.30;37.10;;;;;;5074905;28;20403;-68
2021/06/10 09:27:54;;;;;;;4.10;3.70;;;35.30;38.90;;;;;;5075361;28;20888;-68
2021/06/10 09:30:35;;;;;;;4.80;3.97;;;34.50;38.80;;;;;;5075081;28;20799;-68
2021/06/10 09:33:07;;;;;;;5.57;4.07;;;33.10;38.40;;;;;;5075052;28;20525;-68
2021/06/10 09:35:37;;;;;;;3.63;3.33;;;31.40;43.30;;;;;;5075051;28;20766;-68
2021/06/10 09:38:05;;;;;;;4.93;4.00;;;30.60;45.40;;;;;;5075029;28;20427;-68
2021/06/10 09:40:31;;;;;;;4.47;3.93;;;29.90;46.70;;;;;;5074818;28;20457;-68
2021/06/10 09:42:57;;;;;;;5.60;4.17;;;29.20;50.50;;;;;;5074993;28;20408;-68
2021/06/10 09:45:27;;;;;;;9.10;4.90;;;28.50;48.60;;;;;;5074596;28;20436;-68
2021/06/10 09:47:53;;;;;;;3.40;3.20;;;27.60;53.30;;;;;;5074908;28;20514;-68
2021/06/10 09:50:27;;;;;;;4.57;4.20;;;26.80;54.20;;;;;;5074795;28;20881;-67
2021/06/10 09:53:04;;;;;;;4.80;4.40;;;26.00;56.50;;;;;;5074953;28;20411;-68
2021/06/10 09:55:35;;;;;;;5.30;4.80;;;25.10;58.70;;;;;;5074897;28;20386;-67
2021/06/10 09:58:34;;;;;;;6.63;5.70;;;24.00;65.80;;;;;;5074461;28;20467;-67
2021/06/10 10:01:02;;;;;;;5.30;4.90;;;23.00;73.00;;;;;;5074414;28;20457;-67
2021/06/10 10:03:30;;;;;;;14.03;6.30;;;22.40;88.30;;;;;;5074607;28;20382;-67
2021/06/10 10:06:05;;;;;;;7.73;5.60;;;21.80;92.30;;;;;;5074763;28;20457;-67
2021/06/10 10:08:32;;;;;;;8.23;6.20;;;20.80;94.60;;;;;;5074324;28;20423;-67
2021/06/10 10:11:00;;;;;;;8.67;5.97;;;19.90;98.90;;;;;;5074304;28;20461;-67
2021/06/10 10:13:27;;;;;;;9.57;5.80;;;19.50;99.90;;;;;;5074414;28;20421;-67
2021/06/10 10:15:54;;;;;;;7.27;6.10;;;18.70;99.90;;;;;;5074187;28;20501;-67
2021/06/10 10:18:20;;;;;;;10.10;6.30;;;18.10;99.90;;;;;;5074062;28;20513;-67
2021/06/10 10:20:47;;;;;;;7.20;6.47;;;18.00;99.90;;;;;;5074093;28;20465;-67
2021/06/10 10:23:13;;;;;;;9.17;6.80;;;18.20;99.90;;;;;;5074174;28;20460;-67
2021/06/10 10:25:39;;;;;;;7.60;6.60;;;18.50;99.90;;;;;;5073927;28;20893;-67
2021/06/10 10:28:10;;;;;;;7.77;5.33;;;18.70;99.90;;;;;;5074072;28;20428;-67
2021/06/10 10:30:37;;;;;;;11.07;6.47;;;18.80;99.90;;;;;;5073963;28;20402;-67
2021/06/10 10:33:23;;;;;;;6.13;5.40;;;19.00;99.90;;;;;;5073909;28;20400;-67
2021/06/10 10:35:57;;;;;;;6.97;6.27;;;19.20;99.90;;;;;;5071960;28;20417;-67
2021/06/10 10:38:39;;;;;;;5.37;4.83;;;19.30;99.90;;;;;;5073858;28;20429;-67
2021/06/10 10:41:18;;;;;;;6.10;5.43;;;19.30;99.90;;;;;;5073927;28;20451;-67
2021/06/10 10:43:44;;;;;;;4.80;4.40;;;19.40;99.90;;;;;;5074037;28;20423;-67
2021/06/10 10:46:12;;;;;;;4.87;4.37;;;19.50;99.90;;;;;;5073756;28;20411;-67
2021/06/10 10:48:42;;;;;;;8.33;7.47;;;19.80;99.90;;;;;;5073598;28;20200;-67
2021/06/10 10:51:36;;;;;;;5.50;4.07;;;20.20;99.50;;;;;;5073821;28;20396;-67
2021/06/10 10:54:06;;;;;;;3.67;3.37;;;21.10;99.90;;;;;;5073657;28;20401;-67
2021/06/10 10:56:42;;;;;;;4.30;3.97;;;22.40;97.20;;;;;;5073739;28;20808;-67
2021/06/10 10:59:19;;;;;;;3.50;3.20;;;23.40;97.70;;;;;;5074048;28;20402;-67
2021/06/10 11:02:05;;;;;;;3.97;3.60;;;24.00;94.30;;;;;;5073734;28;20466;-67
2021/06/10 11:04:53;;;;;;;6.13;4.40;;;24.40;93.00;;;;;;5063319;28;20439;-67
2021/06/10 11:07:34;;;;;;;3.73;3.43;;;24.50;92.70;;;;;;5073386;28;20402;-68
2021/06/10 11:10:00;;;;;;;3.43;3.13;;;24.70;92.00;;;;;;5073295;28;20504;-67
2021/06/10 11:12:43;;;;;;;2.73;2.47;;;24.50;89.00;;;;;;5073337;28;20439;-67
2021/06/10 11:15:24;;;;;;;3.37;3.17;;;24.40;90.50;;;;;;5073135;28;20375;-67
2021/06/10 11:17:52;;;;;;;3.43;3.13;;;24.60;91.50;;;;;;5073386;28;20495;-67
2021/06/10 11:20:18;;;;;;;2.90;2.70;;;24.90;90.10;;;;;;5073323;28;20436;-67
2021/06/10 11:22:49;;;;;;;3.37;2.80;;;24.50;92.00;;;;;;5073476;28;20412;-68
2021/06/10 11:25:24;;;;;;;3.13;2.93;;;24.80;90.70;;;;;;5073430;28;20500;-67
2021/06/10 11:27:51;;;;;;;3.40;2.90;;;24.90;92.20;;;;;;5073188;28;20406;-67
2021/06/10 11:30:27;;;;;;;4.10;3.80;;;25.00;91.40;;;;;;5073566;28;20944;-68
2021/06/10 11:32:55;;;;;;;2.97;2.77;;;25.20;91.30;;;;;;5073225;28;20457;-67
2021/06/10 11:35:36;;;;;;;2.90;2.70;;;25.00;86.60;;;;;;5073128;28;20378;-67
2021/06/10 11:38:27;;;;;;;3.87;3.47;;;25.00;89.20;;;;;;5073379;28;20394;-67
2021/06/10 11:40:55;;;;;;;3.40;3.10;;;25.30;93.50;;;;;;5073209;28;20424;-67
2021/06/10 11:43:23;;;;;;;3.83;3.53;;;25.50;90.20;;;;;;5073282;28;20950;-68
2021/06/10 11:45:57;;;;;;;3.80;3.50;;;25.80;90.30;;;;;;5073003;28;20759;-68
2021/06/10 11:48:38;;;;;;;3.70;3.40;;;26.10;91.50;;;;;;5075523;28;20406;-68
2021/06/10 11:51:27;;;;;;;2.70;2.50;;;26.60;86.90;;;;;;5077119;28;20404;-67
2021/06/10 11:53:56;;;;;;;4.10;3.80;;;26.70;81.30;;;;;;5077193;28;20400;-68
2021/06/10 11:56:29;;;;;;;3.50;3.30;;;26.40;78.60;;;;;;5076783;28;20435;-68
2021/06/10 11:59:24;;;;;;;4.17;3.87;;;26.10;90.10;;;;;;5076832;28;20416;-67
2021/06/10 12:01:59;;;;;;;4.80;4.40;;;25.80;90.70;;;;;;5076923;28;20447;-67
2021/06/10 12:04:29;;;;;;;4.33;3.93;;;25.50;91.30;;;;;;5076846;28;20400;-67
2021/06/10 12:07:14;;;;;;;3.87;3.50;;;25.00;93.50;;;;;;5076487;28;20428;-67
2021/06/10 12:09:56;;;;;;;4.30;4.00;;;24.90;93.00;;;;;;5076545;28;20452;-68
2021/06/10 12:12:37;;;;;;;3.67;3.40;;;25.10;92.90;;;;;;5076775;28;20885;-67
2021/06/10 12:15:03;;;;;;;11.10;5.40;;;25.50;85.50;;;;;;5076809;28;20824;-68
2021/06/10 12:17:29;;;;;;;4.47;4.10;;;26.00;92.10;;;;;;5076370;28;20517;-68
2021/06/10 12:20:14;;;;;;;3.40;3.10;;;26.00;85.50;;;;;;5076528;28;20434;-67
2021/06/10 12:22:46;;;;;;;3.43;3.13;;;25.80;80.00;;;;;;5076558;28;20177;-67
2021/06/10 12:25:24;;;;;;;3.57;3.27;;;26.20;91.40;;;;;;5076341;28;20399;-67
2021/06/10 12:27:51;;;;;;;4.20;3.80;;;25.90;80.70;;;;;;5076463;28;20397;-67
2021/06/10 12:30:38;;;;;;;4.20;3.90;;;25.60;92.00;;;;;;5076332;28;20402;-68
2021/06/10 12:33:16;;;;;;;5.23;4.80;;;25.20;92.50;;;;;;5076357;28;20457;-67
2021/06/10 12:35:51;;;;;;;4.10;3.80;;;24.30;94.00;;;;;;5076100;28;20408;-67
2021/06/10 12:38:18;;;;;;;4.70;4.30;;;23.20;96.30;;;;;;5076354;28;20479;-67
2021/06/10 12:40:47;;;;;;;6.80;4.37;;;22.30;98.10;;;;;;5076086;28;20475;-67
2021/06/10 12:43:20;;;;;;;5.03;4.53;;;21.60;98.80;;;;;;5076161;28;20391;-67
2021/06/10 12:45:47;;;;;;;4.53;4.13;;;21.20;99.90;;;;;;5075993;28;20411;-67
2021/06/10 12:48:24;;;;;;;6.37;5.40;;;21.00;99.80;;;;;;5075953;28;20427;-67
2021/06/10 12:50:50;;;;;;;6.13;5.33;;;20.70;99.90;;;;;;5076166;28;20404;-67
2021/06/10 12:53:16;;;;;;;5.70;4.97;;;20.30;99.90;;;;;;5076062;28;20768;-67